Inez, KY

05:55 PM EDT dna 23 Október, 2014 (GMT -0400)
Big Sandy Reg AP, Prestonsbur | Change Station
CLOSE
Current Station
Airport
Location: Big Sandy Reg AP, Prestonsbur,
Nad. výška:: 1220 ft
Najbližšie meteo stanice

Elev 1220 ft 37.75 °N, 82.64 °W | Updated 20 minutes ago

Čiastočne zamračené
Čiastočne zamračené
56 °F
Feels Like 56 °F
N
4
Vietor meniaci sa Vietor from SV

Dnes
High -- | Low -- °F
--% Chance of Precip.
Yesterday
High -- | Low -- °F
Precip. -- in
7:46 AM 6:41 PM
Ubúdajúci mesiac, 4. fáza, 0% visible
Tlak 30.14 in
Viditeľnosť 10.0 mile
Oblačnost Jasno
Rosný bod 43 °F
Vlhkosť 61%
Rainfall 0.00 in
Výška snehu Not available.
UV 1 out of 12
Pollen 1.10 out of 12
Air Quality Not available.
Flu Activity Sporadic
METAR KSJS 232135Z AUTO 04003KT 10SM CLR 13/06 A3014 RMK AO2 T01330060

More Conditions Fewer Conditions

Tlak 30.14 in
Viditeľnosť 10.0 mile
Oblačnost Jasno
Rosný bod 43 °F
Vlhkosť 61%
Rainfall 0.00 in
Výška snehu Not available.
UV 1 out of 12
Pollen 1.10 out of 12
Air Quality Not available.
Flu Activity Sporadic
METAR KSJS 232135Z AUTO 04003KT 10SM CLR 13/06 A3014 RMK AO2 T01330060

More Conditions Fewer Conditions

10-Day Weather Forecast

Almanac

Astronómia

Oct. 23, 2014 Východ Západ
Aktuálny čas 7:46 AM EDT 6:41 PM EDT
Civil Twilight 7:19 AM EDT 7:08 PM EDT
Nautical Twilight 6:48 AM EDT 7:39 PM EDT
Astronomical Twilight 6:18 AM EDT 8:09 PM EDT
Mesiac 7:25 AM EDT 6:42 PM EDT
Length Of Visible Light 11h 49m
Dĺžka dňa
10h 55m
Tomorrow will be 2m 16s shorter.
Ubúdajúci mesiac, 4. fáza, 0% of the Moon is Illuminated
Dnes
Ubúdajúci mesiac, 4. fáza
Oct 23
New
Oct 30
Prvá štvrtina
Nov 6
Spln
Nov 14
Posledná štvrť

Today's Extremes

State Highs State Lows

Community

WunderPhotos

Upload Photos

1,764,381 photos uploaded!

WunderBlogs® & News

Nearby

Výska snehu

Station Depth Nad. výška:
No new snow has been reported.

Aktivita zemetrasenia

Mesto Distance Mag. Time & Date
No recent earthquake activity has been reported nearby.
Minimum magnitude displayed is 2.5.

Coastal Water Temperatures

Miesto Teplota
No Stations Reporting

Najbližšie meteo stanice